sensor_id;sensor_type;location;lat;lon;timestamp;temperature;humidity
15152;DHT22;7676;50.900;6.234;2022-08-26T00:03:27;25.90;99.90
15152;DHT22;7676;50.900;6.234;2022-08-26T00:08:30;25.50;99.90
15152;DHT22;7676;50.900;6.234;2022-08-26T00:13:34;25.70;99.90
15152;DHT22;7676;50.900;6.234;2022-08-26T00:18:37;25.70;99.90
15152;DHT22;7676;50.900;6.234;2022-08-26T00:23:42;25.50;99.90
15152;DHT22;7676;50.900;6.234;2022-08-26T00:28:44;25.40;99.90
15152;DHT22;7676;50.900;6.234;2022-08-26T00:33:47;25.50;99.90
15152;DHT22;7676;50.900;6.234;2022-08-26T00:38:50;25.30;99.90
15152;DHT22;7676;50.900;6.234;2022-08-26T00:43:53;25.30;99.90
15152;DHT22;7676;50.900;6.234;2022-08-26T00:49:06;25.10;99.90
15152;DHT22;7676;50.900;6.234;2022-08-26T00:54:14;25.20;99.90
15152;DHT22;7676;50.900;6.234;2022-08-26T00:59:17;25.20;99.90
15152;DHT22;7676;50.900;6.234;2022-08-26T01:04:21;24.90;99.90
15152;DHT22;7676;50.900;6.234;2022-08-26T01:09:24;25.00;99.90
15152;DHT22;7676;50.900;6.234;2022-08-26T01:14:31;25.00;99.90
15152;DHT22;7676;50.900;6.234;2022-08-26T01:19:45;24.90;99.90
15152;DHT22;7676;50.900;6.234;2022-08-26T01:24:48;24.80;99.90
15152;DHT22;7676;50.900;6.234;2022-08-26T01:29:51;24.90;99.90
15152;DHT22;7676;50.900;6.234;2022-08-26T01:34:54;24.60;99.90
15152;DHT22;7676;50.900;6.234;2022-08-26T01:39:57;24.50;99.90
15152;DHT22;7676;50.900;6.234;2022-08-26T01:45:05;24.30;99.90
15152;DHT22;7676;50.900;6.234;2022-08-26T01:50:17;24.50;99.90
15152;DHT22;7676;50.900;6.234;2022-08-26T01:55:29;24.60;99.90
15152;DHT22;7676;50.900;6.234;2022-08-26T02:00:35;24.70;99.90
15152;DHT22;7676;50.900;6.234;2022-08-26T02:05:38;24.40;99.90
15152;DHT22;7676;50.900;6.234;2022-08-26T02:10:40;24.50;99.90
15152;DHT22;7676;50.900;6.234;2022-08-26T02:15:44;24.30;99.90
15152;DHT22;7676;50.900;6.234;2022-08-26T02:20:48;24.40;99.90
15152;DHT22;7676;50.900;6.234;2022-08-26T02:26:02;24.50;99.90
15152;DHT22;7676;50.900;6.234;2022-08-26T02:31:06;24.40;99.90
15152;DHT22;7676;50.900;6.234;2022-08-26T02:36:11;24.50;99.90
15152;DHT22;7676;50.900;6.234;2022-08-26T02:41:16;24.70;99.90
15152;DHT22;7676;50.900;6.234;2022-08-26T02:46:19;24.60;99.90
15152;DHT22;7676;50.900;6.234;2022-08-26T02:51:29;24.60;99.90
15152;DHT22;7676;50.900;6.234;2022-08-26T02:56:32;24.70;99.90
15152;DHT22;7676;50.900;6.234;2022-08-26T03:01:37;24.60;99.90
15152;DHT22;7676;50.900;6.234;2022-08-26T03:06:40;24.50;99.90
15152;DHT22;7676;50.900;6.234;2022-08-26T03:11:43;24.50;99.90
15152;DHT22;7676;50.900;6.234;2022-08-26T03:16:45;24.20;99.90
15152;DHT22;7676;50.900;6.234;2022-08-26T03:21:50;24.30;99.90
15152;DHT22;7676;50.900;6.234;2022-08-26T03:26:59;24.20;99.90
15152;DHT22;7676;50.900;6.234;2022-08-26T03:32:08;24.10;99.90
15152;DHT22;7676;50.900;6.234;2022-08-26T03:37:11;24.20;99.90
15152;DHT22;7676;50.900;6.234;2022-08-26T03:42:14;24.20;99.90
15152;DHT22;7676;50.900;6.234;2022-08-26T03:47:17;24.30;99.90
15152;DHT22;7676;50.900;6.234;2022-08-26T03:52:19;24.20;99.90
15152;DHT22;7676;50.900;6.234;2022-08-26T03:57:21;24.30;99.90
15152;DHT22;7676;50.900;6.234;2022-08-26T04:02:24;24.30;99.90
15152;DHT22;7676;50.900;6.234;2022-08-26T04:07:27;24.10;99.90
15152;DHT22;7676;50.900;6.234;2022-08-26T04:12:33;24.20;99.90
15152;DHT22;7676;50.900;6.234;2022-08-26T04:17:38;24.30;99.90
15152;DHT22;7676;50.900;6.234;2022-08-26T04:22:40;24.30;99.90
15152;DHT22;7676;50.900;6.234;2022-08-26T04:27:43;24.30;99.90
15152;DHT22;7676;50.900;6.234;2022-08-26T04:32:45;24.20;99.90
15152;DHT22;7676;50.900;6.234;2022-08-26T04:37:48;24.20;99.90
15152;DHT22;7676;50.900;6.234;2022-08-26T04:42:52;24.10;99.90
15152;DHT22;7676;50.900;6.234;2022-08-26T04:47:55;24.30;99.90
15152;DHT22;7676;50.900;6.234;2022-08-26T04:52:58;24.10;99.90
15152;DHT22;7676;50.900;6.234;2022-08-26T04:58:00;24.20;99.90
15152;DHT22;7676;50.900;6.234;2022-08-26T05:03:02;23.70;99.90
15152;DHT22;7676;50.900;6.234;2022-08-26T05:08:08;23.50;99.90
15152;DHT22;7676;50.900;6.234;2022-08-26T05:13:14;23.50;99.90
15152;DHT22;7676;50.900;6.234;2022-08-26T05:18:20;23.30;99.90
15152;DHT22;7676;50.900;6.234;2022-08-26T05:23:24;23.40;99.90
15152;DHT22;7676;50.900;6.234;2022-08-26T05:28:27;23.20;99.90
15152;DHT22;7676;50.900;6.234;2022-08-26T05:33:30;23.50;99.90
15152;DHT22;7676;50.900;6.234;2022-08-26T05:38:32;23.50;99.90
15152;DHT22;7676;50.900;6.234;2022-08-26T05:43:36;23.70;99.90
15152;DHT22;7676;50.900;6.234;2022-08-26T05:48:39;23.50;99.90
15152;DHT22;7676;50.900;6.234;2022-08-26T05:53:45;23.70;99.90
15152;DHT22;7676;50.900;6.234;2022-08-26T05:58:56;23.30;99.90
15152;DHT22;7676;50.900;6.234;2022-08-26T06:04:01;23.30;99.90
15152;DHT22;7676;50.900;6.234;2022-08-26T06:09:05;23.40;99.90
15152;DHT22;7676;50.900;6.234;2022-08-26T06:14:11;23.30;99.90
15152;DHT22;7676;50.900;6.234;2022-08-26T06:19:14;23.30;99.90
15152;DHT22;7676;50.900;6.234;2022-08-26T06:24:17;23.30;99.90
15152;DHT22;7676;50.900;6.234;2022-08-26T06:29:38;23.50;99.90
15152;DHT22;7676;50.900;6.234;2022-08-26T06:34:40;23.70;99.90
15152;DHT22;7676;50.900;6.234;2022-08-26T06:39:42;23.50;99.90
15152;DHT22;7676;50.900;6.234;2022-08-26T06:44:45;23.70;99.90
15152;DHT22;7676;50.900;6.234;2022-08-26T06:49:47;23.70;99.90
15152;DHT22;7676;50.900;6.234;2022-08-26T06:54:52;23.60;99.90
15152;DHT22;7676;50.900;6.234;2022-08-26T06:59:54;23.70;99.90
15152;DHT22;7676;50.900;6.234;2022-08-26T07:04:57;23.70;99.90
15152;DHT22;7676;50.900;6.234;2022-08-26T07:09:59;23.60;99.90
15152;DHT22;7676;50.900;6.234;2022-08-26T07:15:05;23.50;99.90
15152;DHT22;7676;50.900;6.234;2022-08-26T07:20:09;23.60;99.90
15152;DHT22;7676;50.900;6.234;2022-08-26T07:25:12;23.50;99.90
15152;DHT22;7676;50.900;6.234;2022-08-26T07:30:16;23.30;99.90
15152;DHT22;7676;50.900;6.234;2022-08-26T07:35:18;23.50;99.90
15152;DHT22;7676;50.900;6.234;2022-08-26T07:40:20;23.50;99.90
15152;DHT22;7676;50.900;6.234;2022-08-26T07:45:23;23.50;99.90
15152;DHT22;7676;50.900;6.234;2022-08-26T07:50:27;23.50;99.90
15152;DHT22;7676;50.900;6.234;2022-08-26T07:55:49;23.20;99.90
15152;DHT22;7676;50.900;6.234;2022-08-26T08:00:51;23.10;99.90
15152;DHT22;7676;50.900;6.234;2022-08-26T08:05:54;23.30;99.90
15152;DHT22;7676;50.900;6.234;2022-08-26T08:10:57;23.30;99.90
15152;DHT22;7676;50.900;6.234;2022-08-26T08:16:00;23.30;99.90
15152;DHT22;7676;50.900;6.234;2022-08-26T08:21:03;23.20;99.90
15152;DHT22;7676;50.900;6.234;2022-08-26T08:26:24;23.40;99.90
15152;DHT22;7676;50.900;6.234;2022-08-26T08:31:29;23.40;99.90
15152;DHT22;7676;50.900;6.234;2022-08-26T08:36:51;23.60;99.90
15152;DHT22;7676;50.900;6.234;2022-08-26T08:47:36;23.50;99.90
15152;DHT22;7676;50.900;6.234;2022-08-26T08:52:43;23.60;99.90
15152;DHT22;7676;50.900;6.234;2022-08-26T08:58:00;23.60;99.90
15152;DHT22;7676;50.900;6.234;2022-08-26T09:03:30;23.50;99.90
15152;DHT22;7676;50.900;6.234;2022-08-26T09:08:35;23.30;99.90
15152;DHT22;7676;50.900;6.234;2022-08-26T09:13:39;23.40;99.90
15152;DHT22;7676;50.900;6.234;2022-08-26T09:19:16;23.60;99.90
15152;DHT22;7676;50.900;6.234;2022-08-26T09:24:24;23.50;99.90
15152;DHT22;7676;50.900;6.234;2022-08-26T09:29:35;23.60;99.90
15152;DHT22;7676;50.900;6.234;2022-08-26T09:34:58;23.50;99.90
15152;DHT22;7676;50.900;6.234;2022-08-26T09:40:18;23.50;99.90
15152;DHT22;7676;50.900;6.234;2022-08-26T09:45:28;23.60;99.90
15152;DHT22;7676;50.900;6.234;2022-08-26T09:55:35;23.40;99.90
15152;DHT22;7676;50.900;6.234;2022-08-26T10:00:54;23.40;99.90
15152;DHT22;7676;50.900;6.234;2022-08-26T10:06:06;23.30;99.90
15152;DHT22;7676;50.900;6.234;2022-08-26T10:17:10;23.50;99.90
15152;DHT22;7676;50.900;6.234;2022-08-26T10:22:39;23.50;99.90
15152;DHT22;7676;50.900;6.234;2022-08-26T10:33:01;23.90;99.90
15152;DHT22;7676;50.900;6.234;2022-08-26T10:38:13;23.80;99.90
15152;DHT22;7676;50.900;6.234;2022-08-26T10:43:21;23.90;99.90
15152;DHT22;7676;50.900;6.234;2022-08-26T10:49:17;24.00;99.90
15152;DHT22;7676;50.900;6.234;2022-08-26T10:54:10;24.30;99.90
15152;DHT22;7676;50.900;6.234;2022-08-26T11:09:49;24.20;99.90
15152;DHT22;7676;50.900;6.234;2022-08-26T11:14:52;24.10;99.90
15152;DHT22;7676;50.900;6.234;2022-08-26T11:20:02;24.20;99.90
15152;DHT22;7676;50.900;6.234;2022-08-26T11:25:20;24.10;99.90
15152;DHT22;7676;50.900;6.234;2022-08-26T11:30:40;23.80;99.90
15152;DHT22;7676;50.900;6.234;2022-08-26T11:35:45;24.10;99.90
15152;DHT22;7676;50.900;6.234;2022-08-26T11:41:04;24.10;99.90
15152;DHT22;7676;50.900;6.234;2022-08-26T11:46:11;24.00;99.90
15152;DHT22;7676;50.900;6.234;2022-08-26T11:51:24;24.00;99.90
15152;DHT22;7676;50.900;6.234;2022-08-26T11:56:29;23.90;99.90
15152;DHT22;7676;50.900;6.234;2022-08-26T12:01:37;23.90;99.90
15152;DHT22;7676;50.900;6.234;2022-08-26T12:06:46;24.00;99.90
15152;DHT22;7676;50.900;6.234;2022-08-26T12:11:50;24.10;99.90
15152;DHT22;7676;50.900;6.234;2022-08-26T12:17:11;24.00;99.90
15152;DHT22;7676;50.900;6.234;2022-08-26T12:22:22;23.90;99.90
15152;DHT22;7676;50.900;6.234;2022-08-26T12:27:32;24.00;99.90
15152;DHT22;7676;50.900;6.234;2022-08-26T12:32:41;24.10;99.90
15152;DHT22;7676;50.900;6.234;2022-08-26T12:38:00;24.10;99.90
15152;DHT22;7676;50.900;6.234;2022-08-26T12:43:04;23.80;99.90
15152;DHT22;7676;50.900;6.234;2022-08-26T12:48:24;23.90;99.90
15152;DHT22;7676;50.900;6.234;2022-08-26T12:53:32;23.90;99.90
15152;DHT22;7676;50.900;6.234;2022-08-26T12:58:37;23.40;99.90
15152;DHT22;7676;50.900;6.234;2022-08-26T13:03:44;23.40;99.90
15152;DHT22;7676;50.900;6.234;2022-08-26T13:14:12;23.00;99.90
15152;DHT22;7676;50.900;6.234;2022-08-26T13:19:23;23.00;99.90
15152;DHT22;7676;50.900;6.234;2022-08-26T13:24:42;23.10;99.90
15152;DHT22;7676;50.900;6.234;2022-08-26T13:29:45;22.90;99.90
15152;DHT22;7676;50.900;6.234;2022-08-26T13:34:49;22.70;99.90
15152;DHT22;7676;50.900;6.234;2022-08-26T13:39:53;23.20;99.90
15152;DHT22;7676;50.900;6.234;2022-08-26T13:44:55;23.30;99.90
15152;DHT22;7676;50.900;6.234;2022-08-26T13:49:59;23.60;99.90
15152;DHT22;7676;50.900;6.234;2022-08-26T13:55:01;23.40;99.90
15152;DHT22;7676;50.900;6.234;2022-08-26T14:00:05;23.50;99.90
15152;DHT22;7676;50.900;6.234;2022-08-26T14:05:12;23.80;99.90
15152;DHT22;7676;50.900;6.234;2022-08-26T14:10:15;23.40;99.90
15152;DHT22;7676;50.900;6.234;2022-08-26T14:15:18;23.50;99.90
15152;DHT22;7676;50.900;6.234;2022-08-26T14:20:26;23.30;99.90
15152;DHT22;7676;50.900;6.234;2022-08-26T14:25:29;23.70;99.90
15152;DHT22;7676;50.900;6.234;2022-08-26T14:30:33;23.30;99.90
15152;DHT22;7676;50.900;6.234;2022-08-26T14:35:36;23.30;99.90
15152;DHT22;7676;50.900;6.234;2022-08-26T14:40:39;22.80;99.90
15152;DHT22;7676;50.900;6.234;2022-08-26T14:45:45;23.20;99.90
15152;DHT22;7676;50.900;6.234;2022-08-26T14:50:48;22.60;99.90
15152;DHT22;7676;50.900;6.234;2022-08-26T14:55:51;22.30;99.90
15152;DHT22;7676;50.900;6.234;2022-08-26T15:00:54;21.80;99.90
15152;DHT22;7676;50.900;6.234;2022-08-26T15:05:56;22.60;99.90
15152;DHT22;7676;50.900;6.234;2022-08-26T15:10:59;22.10;99.90
15152;DHT22;7676;50.900;6.234;2022-08-26T15:16:02;21.40;99.90
15152;DHT22;7676;50.900;6.234;2022-08-26T15:21:06;21.50;99.90
15152;DHT22;7676;50.900;6.234;2022-08-26T15:26:10;21.60;99.90
15152;DHT22;7676;50.900;6.234;2022-08-26T15:31:13;22.10;99.90
15152;DHT22;7676;50.900;6.234;2022-08-26T15:36:15;21.70;99.90
15152;DHT22;7676;50.900;6.234;2022-08-26T15:41:18;22.00;99.90
15152;DHT22;7676;50.900;6.234;2022-08-26T15:46:23;22.20;99.90
15152;DHT22;7676;50.900;6.234;2022-08-26T15:51:32;22.40;99.90
15152;DHT22;7676;50.900;6.234;2022-08-26T15:56:36;21.90;99.90
15152;DHT22;7676;50.900;6.234;2022-08-26T16:01:39;22.10;99.90
15152;DHT22;7676;50.900;6.234;2022-08-26T16:06:46;22.00;99.90
15152;DHT22;7676;50.900;6.234;2022-08-26T16:11:53;22.20;99.90
15152;DHT22;7676;50.900;6.234;2022-08-26T16:16:56;22.20;99.90
15152;DHT22;7676;50.900;6.234;2022-08-26T16:21:58;22.10;99.90
15152;DHT22;7676;50.900;6.234;2022-08-26T16:27:02;21.90;99.90
15152;DHT22;7676;50.900;6.234;2022-08-26T16:32:24;21.90;99.90
15152;DHT22;7676;50.900;6.234;2022-08-26T16:37:41;22.20;99.90
15152;DHT22;7676;50.900;6.234;2022-08-26T16:42:44;22.30;99.90
15152;DHT22;7676;50.900;6.234;2022-08-26T16:47:47;22.50;99.90
15152;DHT22;7676;50.900;6.234;2022-08-26T16:52:51;22.30;99.90
15152;DHT22;7676;50.900;6.234;2022-08-26T16:57:57;22.20;99.90
15152;DHT22;7676;50.900;6.234;2022-08-26T17:03:00;22.10;99.90
15152;DHT22;7676;50.900;6.234;2022-08-26T17:08:03;22.40;99.90
15152;DHT22;7676;50.900;6.234;2022-08-26T17:13:06;22.50;99.90
15152;DHT22;7676;50.900;6.234;2022-08-26T17:18:09;21.90;99.90
15152;DHT22;7676;50.900;6.234;2022-08-26T17:23:11;22.30;99.90
15152;DHT22;7676;50.900;6.234;2022-08-26T17:28:14;22.00;99.90
15152;DHT22;7676;50.900;6.234;2022-08-26T17:33:16;22.00;99.90
15152;DHT22;7676;50.900;6.234;2022-08-26T17:38:35;22.40;99.90
15152;DHT22;7676;50.900;6.234;2022-08-26T17:44:08;22.40;99.90
15152;DHT22;7676;50.900;6.234;2022-08-26T17:49:19;22.20;99.90
15152;DHT22;7676;50.900;6.234;2022-08-26T17:54:51;22.20;99.90
15152;DHT22;7676;50.900;6.234;2022-08-26T18:00:05;21.80;99.90
15152;DHT22;7676;50.900;6.234;2022-08-26T18:05:11;21.70;99.90
15152;DHT22;7676;50.900;6.234;2022-08-26T18:10:21;21.80;99.90
15152;DHT22;7676;50.900;6.234;2022-08-26T18:15:38;22.00;99.90
15152;DHT22;7676;50.900;6.234;2022-08-26T18:20:45;22.00;99.90
15152;DHT22;7676;50.900;6.234;2022-08-26T18:26:20;22.10;99.90
15152;DHT22;7676;50.900;6.234;2022-08-26T18:31:34;22.20;99.90
15152;DHT22;7676;50.900;6.234;2022-08-26T18:36:38;22.20;99.90
15152;DHT22;7676;50.900;6.234;2022-08-26T18:41:47;22.10;99.90
15152;DHT22;7676;50.900;6.234;2022-08-26T18:46:50;22.30;99.90
15152;DHT22;7676;50.900;6.234;2022-08-26T18:51:53;22.30;99.90
15152;DHT22;7676;50.900;6.234;2022-08-26T18:56:56;22.30;99.90
15152;DHT22;7676;50.900;6.234;2022-08-26T19:01:59;22.50;99.90
15152;DHT22;7676;50.900;6.234;2022-08-26T19:07:02;22.80;99.90
15152;DHT22;7676;50.900;6.234;2022-08-26T19:12:05;22.90;99.90
15152;DHT22;7676;50.900;6.234;2022-08-26T19:17:08;23.00;99.90
15152;DHT22;7676;50.900;6.234;2022-08-26T19:22:12;22.80;99.90
15152;DHT22;7676;50.900;6.234;2022-08-26T19:27:14;22.60;99.90
15152;DHT22;7676;50.900;6.234;2022-08-26T19:32:17;22.90;99.90
15152;DHT22;7676;50.900;6.234;2022-08-26T19:37:25;23.00;99.90
15152;DHT22;7676;50.900;6.234;2022-08-26T19:42:29;23.00;99.90
15152;DHT22;7676;50.900;6.234;2022-08-26T19:47:33;24.80;99.90
15152;DHT22;7676;50.900;6.234;2022-08-26T19:52:39;23.00;99.90
15152;DHT22;7676;50.900;6.234;2022-08-26T19:57:42;23.10;99.90
15152;DHT22;7676;50.900;6.234;2022-08-26T20:02:45;23.10;99.90
15152;DHT22;7676;50.900;6.234;2022-08-26T20:07:48;23.10;99.90
15152;DHT22;7676;50.900;6.234;2022-08-26T20:12:51;23.10;99.90
15152;DHT22;7676;50.900;6.234;2022-08-26T20:17:54;22.80;99.90
15152;DHT22;7676;50.900;6.234;2022-08-26T20:22:57;22.80;99.90
15152;DHT22;7676;50.900;6.234;2022-08-26T20:28:00;22.60;99.90
15152;DHT22;7676;50.900;6.234;2022-08-26T20:33:03;22.60;99.90
15152;DHT22;7676;50.900;6.234;2022-08-26T20:38:05;22.70;99.90
15152;DHT22;7676;50.900;6.234;2022-08-26T20:43:08;22.70;99.90
15152;DHT22;7676;50.900;6.234;2022-08-26T20:48:11;22.80;99.90
15152;DHT22;7676;50.900;6.234;2022-08-26T20:53:13;22.70;99.90
15152;DHT22;7676;50.900;6.234;2022-08-26T20:58:16;22.80;99.90
15152;DHT22;7676;50.900;6.234;2022-08-26T21:03:18;22.80;99.90
15152;DHT22;7676;50.900;6.234;2022-08-26T21:08:21;22.90;99.90
15152;DHT22;7676;50.900;6.234;2022-08-26T21:13:24;22.80;99.90
15152;DHT22;7676;50.900;6.234;2022-08-26T21:18:26;22.90;99.90
15152;DHT22;7676;50.900;6.234;2022-08-26T21:23:29;22.80;99.90
15152;DHT22;7676;50.900;6.234;2022-08-26T21:28:34;22.30;99.90
15152;DHT22;7676;50.900;6.234;2022-08-26T21:33:38;22.10;99.90
15152;DHT22;7676;50.900;6.234;2022-08-26T21:38:41;22.10;99.90
15152;DHT22;7676;50.900;6.234;2022-08-26T21:43:43;22.00;99.90
15152;DHT22;7676;50.900;6.234;2022-08-26T21:48:49;21.90;99.90
15152;DHT22;7676;50.900;6.234;2022-08-26T21:53:54;21.70;99.90
15152;DHT22;7676;50.900;6.234;2022-08-26T21:58:58;21.40;99.90
15152;DHT22;7676;50.900;6.234;2022-08-26T22:04:02;21.50;99.90
15152;DHT22;7676;50.900;6.234;2022-08-26T22:09:05;21.20;99.90
15152;DHT22;7676;50.900;6.234;2022-08-26T22:14:08;20.90;99.90
15152;DHT22;7676;50.900;6.234;2022-08-26T22:19:11;20.80;99.90
15152;DHT22;7676;50.900;6.234;2022-08-26T22:24:21;20.80;99.90
15152;DHT22;7676;50.900;6.234;2022-08-26T22:29:24;20.80;99.90
15152;DHT22;7676;50.900;6.234;2022-08-26T22:34:26;20.80;99.90
15152;DHT22;7676;50.900;6.234;2022-08-26T22:39:29;20.70;99.90
15152;DHT22;7676;50.900;6.234;2022-08-26T22:44:32;20.70;99.90
15152;DHT22;7676;50.900;6.234;2022-08-26T22:49:37;20.60;99.90
15152;DHT22;7676;50.900;6.234;2022-08-26T22:54:40;20.40;99.90
15152;DHT22;7676;50.900;6.234;2022-08-26T22:59:42;20.40;99.90
15152;DHT22;7676;50.900;6.234;2022-08-26T23:04:45;20.40;99.90
15152;DHT22;7676;50.900;6.234;2022-08-26T23:09:47;20.60;99.90
15152;DHT22;7676;50.900;6.234;2022-08-26T23:14:50;20.70;99.90
15152;DHT22;7676;50.900;6.234;2022-08-26T23:19:53;20.60;99.90
15152;DHT22;7676;50.900;6.234;2022-08-26T23:24:56;20.30;99.90
15152;DHT22;7676;50.900;6.234;2022-08-26T23:30:02;20.70;99.90
15152;DHT22;7676;50.900;6.234;2022-08-26T23:35:05;20.70;99.90
15152;DHT22;7676;50.900;6.234;2022-08-26T23:40:14;20.70;99.90
15152;DHT22;7676;50.900;6.234;2022-08-26T23:45:18;20.70;99.90
15152;DHT22;7676;50.900;6.234;2022-08-26T23:50:24;20.90;99.90
15152;DHT22;7676;50.900;6.234;2022-08-26T23:55:51;20.80;99.90
